»·PEaware :: RNGR805 KNGP-KNGP

RNGR805 :: KNGP-KNGP

FLIGHT INFORMATION

Flight Status: Arrived
Operator: Unknown
More flights by this operator :: More flights under this callsign
Pilot: USN Avenger (31125)
Aircraft: BEECH AIRCRAFT T-6A TEXAN
(TEX2)
More flights by this aircraft type
Origin: KNGP Corpus Christi NAS/Truax
United States
Destination: KNGP Corpus Christi NAS/Truax
United States
More flights between these airports :: More routes between these airports
Route: , KINGS4, KNGT,
File this flight plan on PilotEdge
Remarks:
Altitude:
(Current/Filed)
14,500ft
Speed:
(Current/Filed)
200kts
Departed: 27-Nov-23 07:04 AM
Arrived: 27-Nov-23 08:03 AM
Distance/Time
Traveled:
0nm/0:59
Distance/Time
To Go:
Arrived

Flight Plot

Page will automatically refresh every two minutes.

Flight plan parsing failed; only flown route is shown


Map Options




Map Legend


Flown Route
Filed Route
Departure Airport
Arrival Airport
Navaid (VOR, NDB)
Fix

Horizontal Profiles

Position Reports

Time Latitude Longitude Heading Altitude Ground
Speed
27-Nov-23 06:53 27.685992 -97.281256 314 22ft 0kts
27-Nov-23 06:54 27.686166 -97.281466 313 22ft 12kts
27-Nov-23 06:55 27.685992 -97.281256 314 22ft 0kts
27-Nov-23 06:56 27.685992 -97.281256 314 22ft 0kts
27-Nov-23 06:57 27.685992 -97.281256 314 22ft 0kts
27-Nov-23 06:58 27.685992 -97.281256 314 22ft 0kts
27-Nov-23 06:59 27.685992 -97.281256 314 22ft 0kts
27-Nov-23 07:00 27.685992 -97.281256 314 22ft 0kts
27-Nov-23 07:01 27.685992 -97.281257 314 22ft 0kts
27-Nov-23 07:02 27.685993 -97.281258 314 22ft 0kts
27-Nov-23 07:03 27.710174 -97.299246 9 817ft 172kts
27-Nov-23 07:04 27.765128 -97.289306 9 1927ft 191kts
27-Nov-23 07:05 27.820819 -97.279994 6 2567ft 207kts
27-Nov-23 07:06 27.875068 -97.267728 12 5222ft 190kts
27-Nov-23 07:07 27.935603 -97.256481 10 6326ft 234kts
27-Nov-23 07:08 27.997608 -97.251271 359 8468ft 223kts
27-Nov-23 07:09 28.056825 -97.240915 14 10714ft 217kts
27-Nov-23 07:10 28.114075 -97.245746 340 12831ft 214kts
27-Nov-23 07:11 28.166976 -97.276466 325 14662ft 220kts
27-Nov-23 07:12 28.215930 -97.336606 309 13997ft 286kts
27-Nov-23 07:13 28.279109 -97.386991 331 13881ft 271kts
27-Nov-23 07:14 28.335418 -97.422832 332 11177ft 217kts
27-Nov-23 07:15 28.390429 -97.453947 334 8934ft 227kts
27-Nov-23 07:16 28.440094 -97.472121 355 8636ft 226kts
27-Nov-23 07:17 28.502242 -97.476187 356 8172ft 244kts
27-Nov-23 07:18 28.546182 -97.500213 277 7268ft 251kts
27-Nov-23 07:19 28.527648 -97.571240 286 6925ft 246kts
27-Nov-23 07:20 28.559708 -97.638684 303 6331ft 230kts
27-Nov-23 07:21 28.607004 -97.695206 319 4623ft 250kts
27-Nov-23 07:22 28.666059 -97.729166 1 3014ft 237kts
27-Nov-23 07:23 28.702113 -97.680805 96 1595ft 215kts
27-Nov-23 07:24 28.667850 -97.637252 168 1407ft 184kts
27-Nov-23 07:25 28.613708 -97.626324 170 1392ft 200kts
27-Nov-23 07:26 28.609310 -97.631303 6 1068ft 117kts
27-Nov-23 07:27 28.620352 -97.622003 170 362ft 113kts
27-Nov-23 07:28 28.586373 -97.615944 195 753ft 125kts
27-Nov-23 07:29 28.606422 -97.630198 357 1086ft 119kts
27-Nov-23 07:30 28.620253 -97.621983 169 359ft 106kts
27-Nov-23 07:31 28.588436 -97.616588 195 716ft 118kts
27-Nov-23 07:32 28.604277 -97.631859 357 1155ft 126kts
27-Nov-23 07:33 28.620876 -97.622033 166 383ft 108kts
27-Nov-23 07:34 28.589428 -97.617835 206 925ft 123kts
27-Nov-23 07:35 28.612337 -97.633651 359 1051ft 130kts
27-Nov-23 07:36 28.613341 -97.620619 171 328ft 88kts
27-Nov-23 07:37 28.586770 -97.627165 323 1116ft 129kts
27-Nov-23 07:38 28.599326 -97.631177 355 1139ft 134kts
27-Nov-23 08:03 27.698548 -97.284287 158 22ft 0kts
27-Nov-23 08:04 27.698547 -97.284286 158 22ft 0kts
27-Nov-23 08:05 27.698545 -97.284286 158 22ft 0kts
27-Nov-23 08:06 27.698544 -97.284285 158 22ft 0kts
27-Nov-23 08:07 27.698542 -97.284284 158 22ft 0kts
27-Nov-23 08:08 27.698541 -97.284284 158 22ft 0kts
27-Nov-23 08:09 27.698539 -97.284283 158 22ft 0kts
27-Nov-23 08:10 27.698537 -97.284282 158 22ft 0kts
27-Nov-23 08:10 27.698536 -97.284282 158 22ft 0kts
27-Nov-23 08:12 27.698535 -97.284281 158 22ft 0kts
27-Nov-23 08:13 27.698534 -97.284281 158 22ft 0kts
27-Nov-23 08:14 27.698532 -97.284280 158 22ft 0kts
27-Nov-23 08:14 27.699488 -97.286182 276 22ft 11kts
27-Nov-23 08:15 27.695741 -97.290864 229 22ft 0kts
27-Nov-23 08:16 27.694961 -97.291450 134 22ft 5kts

Navigation Log

Ident Type
Flight plan parsing failed, navigation log unavailable